Startpagina
METAR-TAF:

METAR-TAF

Vliegvelden :

Gibraltar, Gibraltar

Gibraltar Airport

breedte: 36-09N, lengte: 005-21W, hoogte: 5 m

Actueel weer

Dit bericht is 1 uur en het 24 minuten geleden gemaakt, om 17:50 UTC
Wind 4 kt uit het oostnoordoosten
Temperatuur 21°C
Vochtigheid 78%
Druk 1021 hPa
Zicht 10 km of meer

METAR: LXGB 211750Z AUTO 06004KT 9999 // NCD 21/17 Q1021

Tijdstip: 21:14 (19:14 UTC)

Verwachting

Dit bericht is 5 uur en het 29 minuten geleden gemaakt, om 13:45 UTC
Verwachting geldig van 21 om 15 UTC tot 21 om 21 UTC
Wind 4 kt uit variabele richting
Zicht 10 km of meer
Weinig wolken op 3500 ft

TAF: LXGB 211345Z 2115/2121 VRB04KT 9999 FEW035

Waarnemingen en weersverwachtingen van meer dan 4000 vliegvelden (METAR en TAF).

De beschikbare stations zijn de gele en rode punten op de kaart.

Ga met uw muis naar het station om de naam te zien.

Klik dan om waarnemingen en weersverwachtingen te zien.

kaart wijzigen: klik op de groene knoppen met een zwart kruis om in te zoomen, op de groene knop met een streepje om uit te zoomen of op de groene pijlen voor aangrenzende kaarten.


METAR-TAF: